createdAt,value
2018-07-15T00:00:58.860Z,1.10
2018-07-15T00:03:26.923Z,1.03
2018-07-15T00:05:54.987Z,0.90
2018-07-15T00:08:23.056Z,1.13
2018-07-15T00:10:51.439Z,1.30
2018-07-15T00:13:19.506Z,1.03
2018-07-15T00:15:47.576Z,1.00
2018-07-15T00:18:15.643Z,0.93
2018-07-15T00:20:43.707Z,1.17
2018-07-15T00:23:11.775Z,1.30
2018-07-15T00:25:39.831Z,1.00
2018-07-15T00:28:08.275Z,1.10
2018-07-15T00:30:36.330Z,0.97
2018-07-15T00:33:04.499Z,1.10
2018-07-15T00:35:32.595Z,1.00
2018-07-15T00:38:00.942Z,1.20
2018-07-15T00:40:29.019Z,1.20
2018-07-15T00:42:57.114Z,1.33
2018-07-15T00:45:25.175Z,1.10
2018-07-15T00:47:53.252Z,1.03
2018-07-15T00:50:21.314Z,1.00
2018-07-15T00:52:49.387Z,1.00
2018-07-15T00:55:17.764Z,1.30
2018-07-15T00:57:45.919Z,1.27
2018-07-15T01:00:17.204Z,1.10
2018-07-15T01:02:45.271Z,1.00
2018-07-15T01:05:13.331Z,1.20
2018-07-15T01:07:41.394Z,1.10
2018-07-15T01:10:09.467Z,1.30
2018-07-15T01:12:37.543Z,0.80
2018-07-15T01:15:05.870Z,0.83
2018-07-15T01:17:33.961Z,1.00
2018-07-15T01:20:02.019Z,1.13
2018-07-15T01:22:30.090Z,0.80
2018-07-15T01:24:58.151Z,0.90
2018-07-15T01:27:26.258Z,1.00
2018-07-15T01:29:54.322Z,1.10
2018-07-15T01:32:22.395Z,0.80
2018-07-15T01:34:50.460Z,0.97
2018-07-15T01:37:18.531Z,0.93
2018-07-15T01:39:46.591Z,1.17
2018-07-15T01:42:14.660Z,0.90
2018-07-15T01:44:42.732Z,1.00
2018-07-15T01:47:10.824Z,1.10
2018-07-15T01:49:38.904Z,0.80
2018-07-15T01:52:07.402Z,1.00
2018-07-15T01:54:35.514Z,1.00
2018-07-15T01:57:03.587Z,1.20
2018-07-15T01:59:31.911Z,0.80
2018-07-15T02:02:00.247Z,1.00
2018-07-15T02:04:28.323Z,0.90
2018-07-15T02:06:56.578Z,0.90
2018-07-15T02:09:24.639Z,1.00
2018-07-15T02:11:52.983Z,1.20
2018-07-15T02:14:21.102Z,1.00
2018-07-15T02:16:49.180Z,0.93
2018-07-15T02:19:17.248Z,0.97
2018-07-15T02:21:45.327Z,0.80
2018-07-15T02:24:13.661Z,0.80
2018-07-15T02:26:41.743Z,1.10
2018-07-15T02:29:09.842Z,1.00
2018-07-15T02:31:38.020Z,0.90
2018-07-15T02:34:07.404Z,0.80
2018-07-15T02:36:35.480Z,0.90
2018-07-15T02:39:04.439Z,1.00
2018-07-15T02:41:32.519Z,0.90
2018-07-15T02:44:00.615Z,0.90
2018-07-15T02:46:28.692Z,1.00
2018-07-15T02:48:56.779Z,1.00
2018-07-15T02:51:24.841Z,0.87
2018-07-15T02:53:52.902Z,1.00
2018-07-15T02:56:20.975Z,1.10
2018-07-15T02:58:49.363Z,0.90
2018-07-15T03:01:17.490Z,0.90
2018-07-15T03:03:45.371Z,1.20
2018-07-15T03:06:13.439Z,1.20
2018-07-15T03:08:41.503Z,1.00
2018-07-15T03:11:09.719Z,1.10
2018-07-15T03:13:37.791Z,0.93
2018-07-15T03:16:06.174Z,1.10
2018-07-15T03:18:34.324Z,1.33
2018-07-15T03:21:02.844Z,0.90
2018-07-15T03:23:30.915Z,0.90
2018-07-15T03:25:58.975Z,1.10
2018-07-15T03:28:27.658Z,0.90
2018-07-15T03:30:55.773Z,1.33
2018-07-15T03:33:24.135Z,1.00
2018-07-15T03:35:52.198Z,0.87
2018-07-15T03:38:20.280Z,1.00
2018-07-15T03:40:48.587Z,0.90
2018-07-15T03:43:16.893Z,0.83
2018-07-15T03:45:44.964Z,0.93
2018-07-15T03:48:13.022Z,1.30
2018-07-15T03:50:41.374Z,0.83
2018-07-15T03:53:09.554Z,0.90
2018-07-15T03:55:37.614Z,1.27
2018-07-15T03:58:05.979Z,1.03
2018-07-15T04:00:34.075Z,0.90
2018-07-15T04:03:02.399Z,0.80
2018-07-15T04:05:30.520Z,1.13
2018-07-15T04:07:58.570Z,1.10
2018-07-15T04:10:26.643Z,0.90
2018-07-15T04:12:54.744Z,1.20
2018-07-15T04:15:22.810Z,0.80
2018-07-15T04:17:55.278Z,0.90
2018-07-15T04:20:23.347Z,0.90
2018-07-15T04:22:51.494Z,0.87
2018-07-15T04:25:19.563Z,1.07
2018-07-15T04:27:47.617Z,0.80
2018-07-15T04:30:15.691Z,1.00
2018-07-15T04:32:43.766Z,1.30
2018-07-15T04:35:11.834Z,0.97
2018-07-15T04:37:39.890Z,0.90
2018-07-15T04:40:07.966Z,0.70
2018-07-15T04:42:36.023Z,1.07
2018-07-15T04:45:04.463Z,1.00
2018-07-15T04:47:32.631Z,1.00
2018-07-15T04:50:00.695Z,0.97
2018-07-15T04:52:28.763Z,0.73
2018-07-15T04:54:56.897Z,1.00
2018-07-15T04:57:24.959Z,1.00
2018-07-15T04:59:53.039Z,0.97
2018-07-15T05:02:21.119Z,0.80
2018-07-15T05:04:49.190Z,0.90
2018-07-15T05:07:17.263Z,0.97
2018-07-15T05:09:45.371Z,0.80
2018-07-15T05:12:13.447Z,0.60
2018-07-15T05:14:41.527Z,0.70
2018-07-15T05:17:09.599Z,1.00
2018-07-15T05:19:37.699Z,1.03
2018-07-15T05:22:05.774Z,1.00
2018-07-15T05:24:33.842Z,0.83
2018-07-15T05:27:01.902Z,1.00
2018-07-15T05:29:29.994Z,0.90
2018-07-15T05:31:58.059Z,0.70
2018-07-15T05:34:26.138Z,0.77
2018-07-15T05:36:54.202Z,1.00
2018-07-15T05:39:22.270Z,1.00
2018-07-15T05:41:50.334Z,0.70
2018-07-15T05:44:18.431Z,0.70
2018-07-15T05:46:46.454Z,0.80
2018-07-15T05:49:14.530Z,0.97
2018-07-15T05:51:42.588Z,1.07
2018-07-15T05:54:10.648Z,0.83
2018-07-15T05:56:38.728Z,0.90
2018-07-15T05:59:06.794Z,0.90
2018-07-15T06:01:34.859Z,1.07
2018-07-15T06:04:02.938Z,1.00
2018-07-15T06:06:31.007Z,1.10
2018-07-15T06:08:59.067Z,1.10
2018-07-15T06:11:27.435Z,0.80
2018-07-15T06:13:55.562Z,0.93
2018-07-15T06:16:23.630Z,1.33
2018-07-15T06:18:51.578Z,1.20
2018-07-15T06:21:19.654Z,1.10
2018-07-15T06:23:47.723Z,1.30
2018-07-15T06:26:15.853Z,1.00
2018-07-15T06:28:44.067Z,1.40
2018-07-15T06:31:12.351Z,1.30
2018-07-15T06:33:40.426Z,1.60
2018-07-15T06:36:08.494Z,1.33
2018-07-15T06:38:36.553Z,1.60
2018-07-15T06:41:04.737Z,1.40
2018-07-15T06:43:32.796Z,1.67
2018-07-15T06:46:00.858Z,1.80
2018-07-15T06:48:28.931Z,1.80
2018-07-15T06:50:57.020Z,1.80
2018-07-15T06:53:25.071Z,1.20
2018-07-15T06:55:53.164Z,1.30
2018-07-15T06:58:21.258Z,1.00
2018-07-15T07:00:49.522Z,1.40
2018-07-15T07:03:17.603Z,1.07
2018-07-15T07:05:45.668Z,1.30
2018-07-15T07:08:13.730Z,1.00
2018-07-15T07:10:41.802Z,0.90
2018-07-15T07:13:09.657Z,1.10
2018-07-15T07:15:37.723Z,1.30
2018-07-15T07:18:05.787Z,1.10
2018-07-15T07:20:33.888Z,1.20
2018-07-15T07:23:01.927Z,1.07
2018-07-15T07:25:30.031Z,1.10
2018-07-15T07:27:58.111Z,1.27
2018-07-15T07:30:26.178Z,1.50
2018-07-15T07:32:54.242Z,1.40
2018-07-15T07:35:22.347Z,1.30
2018-07-15T07:37:50.378Z,1.60
2018-07-15T07:40:18.472Z,1.63
2018-07-15T07:42:46.538Z,1.60
2018-07-15T07:45:14.579Z,1.40
2018-07-15T07:47:42.651Z,1.70
2018-07-15T07:50:10.714Z,1.50
2018-07-15T07:52:38.788Z,1.20
2018-07-15T07:55:06.843Z,1.33
2018-07-15T07:57:34.912Z,1.30
2018-07-15T08:00:03.483Z,1.10
2018-07-15T08:02:31.571Z,1.20
2018-07-15T08:04:59.845Z,1.13
2018-07-15T08:07:28.627Z,1.37
2018-07-15T08:09:56.687Z,1.30
2018-07-15T08:12:24.821Z,1.33
2018-07-15T08:14:52.870Z,1.23
2018-07-15T08:17:20.755Z,1.17
2018-07-15T08:19:49.317Z,1.40
2018-07-15T08:22:17.382Z,1.40
2018-07-15T08:24:45.454Z,1.30
2018-07-15T08:27:13.600Z,1.30
2018-07-15T08:29:52.846Z,1.53
2018-07-15T08:32:20.935Z,1.50
2018-07-15T08:34:49.017Z,1.30
2018-07-15T08:37:17.082Z,1.60
2018-07-15T08:39:45.159Z,1.70
2018-07-15T08:42:13.232Z,1.50
2018-07-15T08:44:41.315Z,2.00
2018-07-15T08:47:09.615Z,1.60
2018-07-15T08:49:37.693Z,1.23
2018-07-15T08:52:05.925Z,1.80
2018-07-15T08:54:34.035Z,1.67
2018-07-15T08:57:02.079Z,2.53
2018-07-15T08:59:30.174Z,1.70
2018-07-15T09:01:58.263Z,1.70
2018-07-15T09:04:26.331Z,1.60
2018-07-15T09:06:54.600Z,1.80
2018-07-15T09:09:22.673Z,1.50
2018-07-15T09:11:50.780Z,1.60
2018-07-15T09:14:18.999Z,1.57
2018-07-15T09:16:47.386Z,1.30
2018-07-15T09:19:15.463Z,1.40
2018-07-15T09:21:43.846Z,1.47
2018-07-15T09:24:11.866Z,1.67
2018-07-15T09:26:39.928Z,1.20
2018-07-15T09:29:08.315Z,1.43
2018-07-15T09:31:36.370Z,1.50
2018-07-15T09:34:04.444Z,1.40
2018-07-15T09:36:32.787Z,1.60
2018-07-15T09:39:00.862Z,1.80
2018-07-15T09:41:28.928Z,1.70
2018-07-15T09:43:57.024Z,1.50
2018-07-15T09:46:25.110Z,2.07
2018-07-15T09:48:53.491Z,1.73
2018-07-15T09:51:21.571Z,1.90
2018-07-15T09:53:49.631Z,1.90
2018-07-15T09:56:17.714Z,1.90
2018-07-15T09:58:45.933Z,2.40
2018-07-15T10:03:37.439Z,2.50
2018-07-15T10:06:05.594Z,2.77
2018-07-15T10:08:33.674Z,2.50
2018-07-15T10:11:01.743Z,2.60
2018-07-15T10:13:29.823Z,2.13
2018-07-15T10:15:57.962Z,2.47
2018-07-15T10:18:26.135Z,2.10
2018-07-15T10:20:54.308Z,2.30
2018-07-15T10:23:22.693Z,2.83
2018-07-15T10:25:50.761Z,2.40
2018-07-15T10:28:18.846Z,2.63
2018-07-15T10:30:46.904Z,2.10
2018-07-15T10:33:15.084Z,2.47
2018-07-15T10:35:43.094Z,7.33
2018-07-15T10:38:11.463Z,5.13
2018-07-15T10:40:39.548Z,3.70
2018-07-15T10:43:07.964Z,3.33
2018-07-15T10:45:36.031Z,2.70
2018-07-15T10:48:04.111Z,2.97
2018-07-15T10:50:32.179Z,2.30
2018-07-15T10:53:00.317Z,2.10
2018-07-15T10:55:28.333Z,2.20
2018-07-15T10:57:56.433Z,2.50
2018-07-15T11:00:24.560Z,2.27
2018-07-15T11:02:52.623Z,2.33
2018-07-15T11:05:20.933Z,2.13
2018-07-15T11:07:49.023Z,2.43
2018-07-15T11:10:17.143Z,2.00
2018-07-15T11:12:45.438Z,1.70
2018-07-15T11:15:13.515Z,2.20
2018-07-15T11:17:41.603Z,2.30
2018-07-15T11:20:09.672Z,2.20
2018-07-15T11:22:37.744Z,2.10
2018-07-15T11:25:05.911Z,2.10
2018-07-15T11:27:33.985Z,2.37
2018-07-15T11:30:02.067Z,2.33
2018-07-15T11:32:30.139Z,2.23
2018-07-15T11:34:58.499Z,2.07
2018-07-15T11:37:26.559Z,1.80
2018-07-15T11:39:54.634Z,2.17
2018-07-15T11:42:22.703Z,2.20
2018-07-15T11:44:50.777Z,1.97
2018-07-15T11:47:18.842Z,2.20
2018-07-15T11:49:47.395Z,2.20
2018-07-15T11:52:15.707Z,2.20
2018-07-15T11:54:43.845Z,1.97
2018-07-15T11:57:11.911Z,2.30
2018-07-15T11:59:39.989Z,2.47
2018-07-15T12:02:08.065Z,2.27
2018-07-15T12:04:36.134Z,2.20
2018-07-15T12:07:04.217Z,2.27
2018-07-15T12:09:32.291Z,2.03
2018-07-15T12:12:00.731Z,2.30
2018-07-15T12:14:28.932Z,2.40
2018-07-15T12:16:56.988Z,2.50
2018-07-15T12:19:25.083Z,2.43
2018-07-15T12:21:53.135Z,2.00
2018-07-15T12:24:21.199Z,2.53
2018-07-15T12:26:49.267Z,2.23
2018-07-15T12:29:17.350Z,2.27
2018-07-15T12:31:45.431Z,2.20
2018-07-15T12:34:13.510Z,2.20
2018-07-15T12:36:41.611Z,2.40
2018-07-15T12:39:10.090Z,2.20
2018-07-15T12:41:38.180Z,2.20
2018-07-15T12:44:06.323Z,1.97
2018-07-15T12:46:34.452Z,2.10
2018-07-15T12:49:02.527Z,2.30
2018-07-15T12:51:30.843Z,2.40
2018-07-15T12:53:58.920Z,2.20
2018-07-15T12:56:26.992Z,2.60
2018-07-15T12:58:55.069Z,2.07
2018-07-15T13:01:23.223Z,2.23
2018-07-15T13:03:51.294Z,2.10
2018-07-15T13:06:19.359Z,2.30
2018-07-15T13:08:47.746Z,2.17
2018-07-15T13:11:15.820Z,2.33
2018-07-15T13:13:43.879Z,1.90
2018-07-15T13:16:11.997Z,2.27
2018-07-15T13:18:40.011Z,2.40
2018-07-15T13:21:08.087Z,2.27
2018-07-15T13:23:36.187Z,2.30
2018-07-15T13:26:04.339Z,2.43
2018-07-15T13:28:32.410Z,1.90
2018-07-15T13:31:00.731Z,2.30
2018-07-15T13:33:28.818Z,2.37
2018-07-15T13:35:57.196Z,2.30
2018-07-15T13:38:25.258Z,2.70
2018-07-15T13:40:53.348Z,2.37
2018-07-15T13:43:21.455Z,2.27
2018-07-15T13:45:49.567Z,2.40
2018-07-15T13:48:17.894Z,2.30
2018-07-15T13:50:45.971Z,2.27
2018-07-15T13:53:14.030Z,2.00
2018-07-15T13:55:42.093Z,2.10
2018-07-15T13:58:10.147Z,2.37
2018-07-15T14:00:38.443Z,2.10
2018-07-15T14:03:06.555Z,2.10
2018-07-15T14:05:34.641Z,2.17
2018-07-15T14:08:02.699Z,2.23
2018-07-15T14:10:30.814Z,2.17
2018-07-15T14:12:58.956Z,2.13
2018-07-15T14:15:27.024Z,2.13
2018-07-15T14:17:55.899Z,2.13
2018-07-15T14:20:23.994Z,2.07
2018-07-15T14:22:52.070Z,2.13
2018-07-15T14:25:20.606Z,1.87
2018-07-15T14:27:48.555Z,2.10
2018-07-15T14:30:16.869Z,2.40
2018-07-15T14:32:44.991Z,2.00
2018-07-15T14:35:13.635Z,1.80
2018-07-15T14:37:42.629Z,1.80
2018-07-15T14:40:13.719Z,1.90
2018-07-15T14:42:46.970Z,2.00
2018-07-15T14:45:15.080Z,2.40
2018-07-15T14:47:43.363Z,2.33
2018-07-15T14:50:11.540Z,2.63
2018-07-15T14:52:39.941Z,2.50
2018-07-15T14:55:08.031Z,2.67
2018-07-15T14:57:37.374Z,2.23
2018-07-15T15:00:08.655Z,2.40
2018-07-15T15:02:38.018Z,3.00
2018-07-15T15:05:06.767Z,2.60
2018-07-15T15:07:37.209Z,2.30
2018-07-15T15:10:08.593Z,2.27
2018-07-15T15:12:41.665Z,2.73
2018-07-15T15:15:10.046Z,2.67
2018-07-15T15:17:38.142Z,3.27
2018-07-15T15:20:06.062Z,3.07
2018-07-15T15:22:34.156Z,3.00
2018-07-15T15:25:02.222Z,3.10
2018-07-15T15:27:30.295Z,2.63
2018-07-15T15:29:58.375Z,3.40
2018-07-15T15:32:26.771Z,3.50
2018-07-15T15:34:55.123Z,3.53
2018-07-15T15:37:23.285Z,3.00
2018-07-15T15:39:51.383Z,3.00
2018-07-15T15:42:19.324Z,3.10
2018-07-15T15:44:47.567Z,3.47
2018-07-15T15:47:15.578Z,3.67
2018-07-15T15:49:43.651Z,3.40
2018-07-15T15:52:11.738Z,3.50
2018-07-15T15:54:39.910Z,3.63
2018-07-15T15:57:07.991Z,3.00
2018-07-15T15:59:36.059Z,3.67
2018-07-15T16:02:04.132Z,4.07
2018-07-15T16:04:32.195Z,5.10
2018-07-15T16:07:00.350Z,4.37
2018-07-15T16:09:28.366Z,4.83
2018-07-15T16:11:56.451Z,4.93
2018-07-15T16:14:24.515Z,5.00
2018-07-15T16:16:52.579Z,4.20
2018-07-15T16:19:20.641Z,3.87
2018-07-15T16:21:48.707Z,4.00
2018-07-15T16:24:16.870Z,4.07
2018-07-15T16:26:44.955Z,4.13
2018-07-15T16:29:13.011Z,4.00
2018-07-15T16:31:41.404Z,4.13
2018-07-15T16:34:09.540Z,3.80
2018-07-15T16:36:37.651Z,3.70
2018-07-15T16:39:06.145Z,4.07
2018-07-15T16:41:34.294Z,3.93
2018-07-15T16:44:02.358Z,3.70
2018-07-15T16:46:30.447Z,3.63
2018-07-15T16:48:58.521Z,3.30
2018-07-15T16:51:26.607Z,3.80
2018-07-15T16:53:54.699Z,3.33
2018-07-15T16:56:22.808Z,3.60
2018-07-15T16:58:50.966Z,3.60
2018-07-15T17:01:19.407Z,3.70
2018-07-15T17:03:47.483Z,3.40
2018-07-15T17:06:15.607Z,3.03
2018-07-15T17:08:43.678Z,2.93
2018-07-15T17:11:11.761Z,3.53
2018-07-15T17:13:39.843Z,3.40
2018-07-15T17:16:07.923Z,3.53
2018-07-15T17:18:36.002Z,3.40
2018-07-15T17:21:04.080Z,3.10
2018-07-15T17:23:32.155Z,3.60
2018-07-15T17:26:00.277Z,3.20
2018-07-15T17:28:28.368Z,3.30
2018-07-15T17:30:56.426Z,3.17
2018-07-15T17:33:24.507Z,3.03
2018-07-15T17:35:52.851Z,3.27
2018-07-15T17:38:21.032Z,3.07
2018-07-15T17:40:49.112Z,3.23
2018-07-15T17:43:17.200Z,3.10
2018-07-15T17:45:45.845Z,3.23
2018-07-15T17:48:14.392Z,3.23
2018-07-15T17:50:42.784Z,3.17
2018-07-15T17:53:10.907Z,3.20
2018-07-15T17:55:38.978Z,2.90
2018-07-15T17:58:07.054Z,3.17
2018-07-15T18:00:35.110Z,3.10
2018-07-15T18:03:03.196Z,3.00
2018-07-15T18:05:31.291Z,3.30
2018-07-15T18:07:59.350Z,2.90
2018-07-15T18:10:27.476Z,3.03
2018-07-15T18:12:55.503Z,3.10
2018-07-15T18:15:23.563Z,3.10
2018-07-15T18:17:51.631Z,2.80
2018-07-15T18:20:19.677Z,3.17
2018-07-15T18:22:47.759Z,2.90
2018-07-15T18:25:15.822Z,3.20
2018-07-15T18:27:44.106Z,3.00
2018-07-15T18:30:12.174Z,2.90
2018-07-15T18:32:40.252Z,2.83
2018-07-15T18:35:08.323Z,2.80
2018-07-15T18:37:36.455Z,2.87
2018-07-15T18:40:04.543Z,2.90
2018-07-15T18:42:32.654Z,2.87
2018-07-15T18:45:00.801Z,2.80
2018-07-15T18:47:28.826Z,3.27
2018-07-15T18:49:56.962Z,3.37
2018-07-15T18:52:25.040Z,3.20
2018-07-15T18:54:53.109Z,2.80
2018-07-15T18:57:21.167Z,2.80
2018-07-15T18:59:49.253Z,2.90
2018-07-15T19:02:17.311Z,3.03
2018-07-15T19:04:45.639Z,3.03
2018-07-15T19:07:13.715Z,2.87
2018-07-15T19:09:41.800Z,2.63
2018-07-15T19:12:09.855Z,3.00
2018-07-15T19:14:38.355Z,3.00
2018-07-15T19:17:06.425Z,3.20
2018-07-15T19:19:34.580Z,3.00
2018-07-15T19:22:02.661Z,2.77
2018-07-15T19:24:30.789Z,2.97
2018-07-15T19:26:58.849Z,3.00
2018-07-15T19:29:26.998Z,3.10
2018-07-15T19:31:55.051Z,3.30
2018-07-15T19:34:23.143Z,3.20
2018-07-15T19:36:51.245Z,3.20
2018-07-15T19:39:19.339Z,3.10
2018-07-15T19:41:47.410Z,3.00
2018-07-15T19:44:15.628Z,3.90
2018-07-15T19:46:43.702Z,3.57
2018-07-15T19:49:11.791Z,3.30
2018-07-15T19:51:39.902Z,3.50
2018-07-15T19:54:07.979Z,3.17
2018-07-15T19:56:36.043Z,3.60
2018-07-15T19:59:04.278Z,3.43
2018-07-15T20:01:32.355Z,3.13
2018-07-15T20:04:00.606Z,3.50
2018-07-15T20:06:28.670Z,3.50
2018-07-15T20:08:56.759Z,3.07
2018-07-15T20:11:24.822Z,3.30
2018-07-15T20:13:52.686Z,3.23
2018-07-15T20:16:20.804Z,3.00
2018-07-15T20:18:48.858Z,3.20
2018-07-15T20:21:16.923Z,3.90
2018-07-15T20:23:45.016Z,3.83
2018-07-15T20:26:13.342Z,3.67
2018-07-15T20:28:41.415Z,3.70
2018-07-15T20:31:09.478Z,3.10
2018-07-15T20:33:37.558Z,3.33
2018-07-15T20:36:05.651Z,3.40
2018-07-15T20:38:33.744Z,2.97
2018-07-15T20:41:01.807Z,3.37
2018-07-15T20:43:29.866Z,3.20
2018-07-15T20:45:57.951Z,3.60
2018-07-15T20:48:26.027Z,3.77
2018-07-15T20:50:54.120Z,3.50
2018-07-15T20:53:22.194Z,3.30
2018-07-15T20:55:50.278Z,3.10
2018-07-15T20:58:18.340Z,3.30
2018-07-15T21:00:46.442Z,3.30
2018-07-15T21:03:14.820Z,3.10
2018-07-15T21:05:43.079Z,2.90
2018-07-15T21:08:11.175Z,3.67
2018-07-15T21:10:39.271Z,3.53
2018-07-15T21:13:07.355Z,3.33
2018-07-15T21:15:35.433Z,3.87
2018-07-15T21:18:03.487Z,2.70
2018-07-15T21:20:31.575Z,3.60
2018-07-15T21:22:59.630Z,3.20
2018-07-15T21:25:27.699Z,3.40
2018-07-15T21:27:56.015Z,3.27
2018-07-15T21:30:24.117Z,3.60
2018-07-15T21:32:52.183Z,3.57
2018-07-15T21:35:20.264Z,3.40
2018-07-15T21:37:48.396Z,3.33
2018-07-15T21:40:16.414Z,2.93
2018-07-15T21:42:44.556Z,3.80
2018-07-15T21:45:12.636Z,2.80
2018-07-15T21:47:40.734Z,3.30
2018-07-15T21:50:08.825Z,3.30
2018-07-15T21:52:36.894Z,3.13
2018-07-15T21:55:04.983Z,3.23
2018-07-15T21:57:33.287Z,3.07
2018-07-15T22:00:01.359Z,3.43
2018-07-15T22:02:29.427Z,3.10
2018-07-15T22:04:58.101Z,3.13
2018-07-15T22:07:37.859Z,3.40
2018-07-15T22:10:14.692Z,2.90
2018-07-15T22:12:42.747Z,3.20
2018-07-15T22:15:10.838Z,2.90
2018-07-15T22:17:38.919Z,3.33
2018-07-15T22:20:06.984Z,3.30
2018-07-15T22:22:35.039Z,3.10
2018-07-15T22:25:03.106Z,3.00
2018-07-15T22:27:31.179Z,3.03
2018-07-15T22:29:59.332Z,2.80
2018-07-15T22:32:27.395Z,3.30
2018-07-15T22:34:55.467Z,3.10
2018-07-15T22:37:23.644Z,3.17
2018-07-15T22:39:51.731Z,3.10
2018-07-15T22:42:19.890Z,3.20
2018-07-15T22:44:48.266Z,3.07
2018-07-15T22:47:16.322Z,3.13
2018-07-15T22:49:44.395Z,2.83
2018-07-15T22:52:12.479Z,3.50
2018-07-15T22:54:40.551Z,3.40
2018-07-15T22:57:08.775Z,2.90
2018-07-15T22:59:36.856Z,2.90
2018-07-15T23:02:04.984Z,3.00
2018-07-15T23:05:42.511Z,3.33
2018-07-15T23:08:10.881Z,3.17
2018-07-15T23:10:38.969Z,3.03
2018-07-15T23:13:08.143Z,3.33
2018-07-15T23:15:36.726Z,3.13
2018-07-15T23:18:04.791Z,2.80
2018-07-15T23:20:33.587Z,2.90
2018-07-15T23:23:02.540Z,2.80
2018-07-15T23:25:31.270Z,2.97
2018-07-15T23:28:00.060Z,3.10
2018-07-15T23:30:28.730Z,3.23
2018-07-15T23:32:56.818Z,2.83
2018-07-15T23:35:24.895Z,2.70
2018-07-15T23:37:53.053Z,3.07
2018-07-15T23:40:21.118Z,3.27
2018-07-15T23:42:49.855Z,2.87
2018-07-15T23:45:17.956Z,2.53
2018-07-15T23:47:46.036Z,2.80
2018-07-15T23:50:14.100Z,3.03
2018-07-15T23:52:42.174Z,2.90
2018-07-15T23:55:10.527Z,2.80
2018-07-15T23:57:38.867Z,2.80
